Time;durP1;ratioP1;P1;durP2;ratioP2;P2;SDS_P1;SDS_P2;PMS_P1;PMS_P2;Temp;Humidity;BMP_temperature;BMP_pressure;BME280_temperature;BME280_humidity;BME280_pressure;Samples;Min_cycle;Max_cycle;Signal;HPM_P1;HPM_P2
2022/05/25 00:01:48;;;;;;;5.65;4.63;;;12.80;99.90;;;;;;5033466;28;20033;-47
2022/05/25 00:04:14;;;;;;;7.68;4.68;;;12.80;99.90;;;;;;5032002;28;20402;-47
2022/05/25 00:06:40;;;;;;;7.53;4.47;;;12.90;99.90;;;;;;5033452;28;20095;-48
2022/05/25 00:09:05;;;;;;;11.43;4.82;;;12.90;99.90;;;;;;5033423;28;20100;-48
2022/05/25 00:11:31;;;;;;;7.88;4.90;;;12.80;99.90;;;;;;5032578;28;20032;-47
2022/05/25 00:13:57;;;;;;;5.53;4.43;;;12.80;99.90;;;;;;5034594;28;20077;-49
2022/05/25 00:16:22;;;;;;;7.95;4.85;;;12.90;99.90;;;;;;5033964;28;20029;-50
2022/05/25 00:21:32;;;;;;;5.65;4.60;;;12.90;99.90;;;;;;5032928;28;20560;-50
2022/05/25 00:23:59;;;;;;;5.47;4.55;;;12.90;99.90;;;;;;5033230;28;20025;-47
2022/05/25 00:26:24;;;;;;;5.60;4.70;;;12.90;99.90;;;;;;5035888;28;20060;-53
2022/05/25 00:28:50;;;;;;;5.38;4.72;;;12.90;99.90;;;;;;5037502;28;20106;-49
2022/05/25 00:31:15;;;;;;;6.15;4.70;;;12.90;99.90;;;;;;5047261;28;20029;-50
2022/05/25 00:33:41;;;;;;;7.60;4.85;;;13.00;99.90;;;;;;5052475;28;20029;-47
2022/05/25 00:36:08;;;;;;;5.43;4.40;;;13.00;99.90;;;;;;5052086;28;20386;-47
2022/05/25 00:38:33;;;;;;;7.05;4.70;;;13.00;99.90;;;;;;5052605;28;20446;-50
2022/05/25 00:40:59;;;;;;;6.05;4.65;;;13.00;99.90;;;;;;5052700;28;20120;-46
2022/05/25 00:43:25;;;;;;;6.20;4.53;;;13.00;99.90;;;;;;5052583;28;20068;-49
2022/05/25 00:45:54;;;;;;;5.15;4.07;;;13.00;99.90;;;;;;5052552;28;20029;-47
2022/05/25 00:48:27;;;;;;;4.50;4.05;;;13.10;99.90;;;;;;5052249;28;20025;-49
2022/05/25 00:53:38;;;;;;;4.65;3.90;;;13.10;99.90;;;;;;5052580;28;20039;-48
2022/05/25 00:56:08;;;;;;;5.85;4.32;;;13.10;99.90;;;;;;5052206;28;20140;-48
2022/05/25 00:58:34;;;;;;;4.07;3.40;;;13.10;99.90;;;;;;5052477;28;20036;-51
2022/05/25 01:01:00;;;;;;;4.32;3.47;;;13.00;99.90;;;;;;5052549;28;20041;-47
2022/05/25 01:03:26;;;;;;;5.68;3.33;;;12.90;99.90;;;;;;5052528;28;20036;-48
2022/05/25 01:06:22;;;;;;;4.55;3.75;;;12.90;99.90;;;;;;5052001;28;20025;-47
2022/05/25 01:09:09;;;;;;;3.50;3.10;;;12.90;99.90;;;;;;5052430;28;20025;-53
2022/05/25 01:12:02;;;;;;;3.60;3.03;;;12.90;99.90;;;;;;5051181;28;20033;-49
2022/05/25 01:15:01;;;;;;;5.20;3.20;;;12.80;99.90;;;;;;5052166;28;20022;-48
2022/05/25 01:17:26;;;;;;;6.97;3.70;;;12.70;99.90;;;;;;5052117;28;20124;-51
2022/05/25 01:20:06;;;;;;;4.43;3.60;;;12.70;99.90;;;;;;5052356;28;20025;-47
2022/05/25 01:23:05;;;;;;;4.28;3.53;;;12.70;99.90;;;;;;5052022;28;20367;-48
2022/05/25 01:25:51;;;;;;;4.55;3.42;;;12.70;99.90;;;;;;5052395;28;20107;-48
2022/05/25 01:28:48;;;;;;;4.90;4.00;;;12.70;99.90;;;;;;5052360;28;20393;-47
2022/05/25 01:31:22;;;;;;;4.70;4.15;;;12.70;99.90;;;;;;5052254;28;20025;-48
2022/05/25 01:33:57;;;;;;;5.47;4.85;;;12.70;99.90;;;;;;5052157;28;20039;-47
2022/05/25 01:36:25;;;;;;;5.00;4.50;;;12.70;99.90;;;;;;5052130;28;20561;-48
2022/05/25 01:38:58;;;;;;;6.50;4.80;;;12.60;99.90;;;;;;5052099;28;20482;-47
2022/05/25 01:41:42;;;;;;;6.18;5.32;;;12.60;99.90;;;;;;5051923;28;20032;-48
2022/05/25 01:44:16;;;;;;;7.53;5.68;;;12.60;99.90;;;;;;5052287;28;20025;-50
2022/05/25 01:46:49;;;;;;;6.53;5.90;;;12.50;99.90;;;;;;5052384;28;20055;-48
2022/05/25 01:49:20;;;;;;;7.50;6.20;;;12.50;99.90;;;;;;5054614;28;20367;-49
2022/05/25 01:51:50;;;;;;;6.90;6.20;;;12.50;99.90;;;;;;5055542;28;20036;-50
2022/05/25 01:54:19;;;;;;;8.30;6.72;;;12.50;99.90;;;;;;5055391;28;20029;-51
2022/05/25 01:56:49;;;;;;;6.80;6.10;;;12.40;99.90;;;;;;5055590;28;20029;-48
2022/05/25 01:59:16;;;;;;;7.93;6.82;;;12.40;99.90;;;;;;5055042;28;20064;-48
2022/05/25 02:04:19;;;;;;;10.57;7.07;;;12.40;99.90;;;;;;5054889;28;20550;-48
2022/05/25 02:04:40;;;;;;;11.10;7.85;;;12.30;99.90;;;;;;5054899;28;20121;-49
2022/05/25 02:07:15;;;;;;;7.45;6.75;;;12.30;99.90;;;;;;5055214;28;20504;-48
2022/05/25 02:10:16;;;;;;;10.23;7.45;;;12.30;99.90;;;;;;5054763;28;20075;-48
2022/05/25 02:12:58;;;;;;;10.23;7.70;;;12.30;99.90;;;;;;5055238;28;20025;-49
2022/05/25 02:15:35;;;;;;;10.18;7.50;;;12.30;99.90;;;;;;5055224;28;20064;-49
2022/05/25 02:18:29;;;;;;;11.60;8.85;;;12.30;99.90;;;;;;5054579;28;20030;-51
2022/05/25 02:21:02;;;;;;;10.88;8.43;;;12.30;99.90;;;;;;5054733;28;20108;-50
2022/05/25 02:23:48;;;;;;;9.63;8.35;;;12.20;99.90;;;;;;5054712;28;20052;-48
2022/05/25 02:26:28;;;;;;;11.30;9.35;;;12.20;99.90;;;;;;5054730;28;20029;-50
2022/05/25 02:29:10;;;;;;;11.57;9.00;;;12.20;99.90;;;;;;5054811;28;20514;-49
2022/05/25 02:31:44;;;;;;;13.27;9.23;;;12.10;99.90;;;;;;5054645;28;20107;-49
2022/05/25 02:34:12;;;;;;;13.40;9.90;;;12.10;99.90;;;;;;5055062;28;20036;-51
2022/05/25 02:36:39;;;;;;;10.65;9.48;;;12.00;99.90;;;;;;5055055;28;20092;-47
2022/05/25 02:39:10;;;;;;;14.50;11.30;;;12.00;99.90;;;;;;5055114;28;20056;-47
2022/05/25 02:41:44;;;;;;;13.88;10.65;;;12.00;99.90;;;;;;5055014;28;20052;-50
2022/05/25 02:44:09;;;;;;;14.20;10.40;;;12.00;99.90;;;;;;5055982;28;20056;-48
2022/05/25 02:46:35;;;;;;;13.48;10.57;;;12.00;99.90;;;;;;5054705;28;20025;-52
2022/05/25 02:49:00;;;;;;;12.18;10.40;;;12.10;99.90;;;;;;5053450;28;20040;-47
2022/05/25 02:51:26;;;;;;;12.98;10.52;;;12.00;99.90;;;;;;5054741;28;20029;-48
2022/05/25 02:53:52;;;;;;;13.88;10.65;;;12.00;99.90;;;;;;5054660;28;20056;-47
2022/05/25 02:56:18;;;;;;;13.02;10.88;;;12.00;99.90;;;;;;5054356;28;20428;-49
2022/05/25 02:58:43;;;;;;;13.00;10.30;;;12.00;99.90;;;;;;5052598;28;20055;-48
2022/05/25 03:01:09;;;;;;;13.23;10.95;;;12.00;99.90;;;;;;5054152;28;20021;-48
2022/05/25 03:03:37;;;;;;;14.90;11.88;;;12.00;99.90;;;;;;5054190;28;20052;-49
2022/05/25 03:06:04;;;;;;;17.98;11.13;;;12.00;99.90;;;;;;5088050;22;20513;-50
2022/05/25 03:08:30;;;;;;;15.73;11.77;;;11.90;99.90;;;;;;5054634;28;20036;-51
2022/05/25 03:10:56;;;;;;;13.35;10.57;;;11.90;99.90;;;;;;5054569;28;20473;-50
2022/05/25 03:13:21;;;;;;;14.65;11.45;;;11.90;99.90;;;;;;5054848;28;20064;-52
2022/05/25 03:15:47;;;;;;;15.48;12.13;;;11.90;99.90;;;;;;5054399;28;20120;-50
2022/05/25 03:18:12;;;;;;;14.50;11.68;;;11.80;99.90;;;;;;5054273;28;20095;-52
2022/05/25 03:20:38;;;;;;;13.88;10.27;;;11.80;99.90;;;;;;5054263;28;20478;-53
2022/05/25 03:23:04;;;;;;;14.45;12.27;;;11.80;99.90;;;;;;5054578;28;20069;-51
2022/05/25 03:25:29;;;;;;;16.92;12.02;;;11.80;99.90;;;;;;5054147;28;20052;-52
2022/05/25 03:27:55;;;;;;;14.27;11.85;;;11.70;99.90;;;;;;5053223;28;20029;-52
2022/05/25 03:30:21;;;;;;;15.85;12.63;;;11.70;99.90;;;;;;5054202;28;20025;-52
2022/05/25 03:32:47;;;;;;;18.95;11.82;;;11.70;99.90;;;;;;5054006;28;20025;-51
2022/05/25 03:35:13;;;;;;;16.10;12.45;;;11.60;99.90;;;;;;5054245;28;20028;-50
2022/05/25 03:37:39;;;;;;;15.63;12.57;;;11.60;99.90;;;;;;5054095;28;20423;-52
2022/05/25 03:40:06;;;;;;;13.75;11.65;;;11.60;99.90;;;;;;5053784;28;20115;-54
2022/05/25 03:42:33;;;;;;;15.00;12.00;;;11.60;99.90;;;;;;5053729;28;20059;-52
2022/05/25 03:44:59;;;;;;;15.82;11.93;;;11.60;99.90;;;;;;5053800;28;20021;-54
2022/05/25 03:47:24;;;;;;;17.83;13.20;;;11.60;99.90;;;;;;5054908;28;20036;-52
2022/05/25 03:49:50;;;;;;;16.35;12.55;;;11.60;99.90;;;;;;5054471;28;20036;-52
2022/05/25 03:52:23;;;;;;;13.73;11.98;;;11.60;99.90;;;;;;5054211;28;20025;-51
2022/05/25 03:54:48;;;;;;;15.00;11.98;;;11.60;99.90;;;;;;5053690;28;20033;-52
2022/05/25 03:57:14;;;;;;;16.55;13.13;;;11.50;99.90;;;;;;5019263;28;20044;-52
2022/05/25 03:59:39;;;;;;;17.70;14.10;;;11.50;99.90;;;;;;5053832;28;20029;-55
2022/05/25 04:02:05;;;;;;;15.93;13.45;;;11.50;99.90;;;;;;5053654;28;20100;-54
2022/05/25 04:04:31;;;;;;;15.15;12.63;;;11.60;99.90;;;;;;5053716;28;20486;-54
2022/05/25 04:06:57;;;;;;;17.10;13.05;;;11.60;99.90;;;;;;5053895;28;20037;-55
2022/05/25 04:09:22;;;;;;;18.10;13.55;;;11.60;99.90;;;;;;5053475;28;20394;-54
2022/05/25 04:11:48;;;;;;;18.50;13.77;;;11.50;99.90;;;;;;5053254;28;20059;-54
2022/05/25 04:14:15;;;;;;;19.80;13.02;;;11.50;99.90;;;;;;5053924;28;20045;-53
2022/05/25 04:16:45;;;;;;;19.33;14.50;;;11.50;99.90;;;;;;5035970;28;20397;-53
2022/05/25 04:19:11;;;;;;;19.67;14.05;;;11.50;99.90;;;;;;5053443;28;20021;-51
2022/05/25 04:21:37;;;;;;;18.35;14.45;;;11.40;99.90;;;;;;5053198;28;20039;-51
2022/05/25 04:24:03;;;;;;;19.58;13.75;;;11.40;99.90;;;;;;5053718;28;20104;-54
2022/05/25 04:26:30;;;;;;;20.35;14.50;;;11.40;99.90;;;;;;5019285;28;20474;-51
2022/05/25 04:28:57;;;;;;;19.05;15.52;;;11.40;99.90;;;;;;5053932;28;20203;-51
2022/05/25 04:31:23;;;;;;;19.33;14.07;;;11.40;99.90;;;;;;5054036;28;20021;-50
2022/05/25 04:33:48;;;;;;;20.95;15.93;;;11.30;99.90;;;;;;5053551;28;20501;-53
2022/05/25 04:36:15;;;;;;;25.90;15.77;;;11.30;99.90;;;;;;5053699;28;20025;-53
2022/05/25 04:38:41;;;;;;;20.67;15.93;;;11.40;99.90;;;;;;5053853;28;20104;-50
2022/05/25 04:41:07;;;;;;;19.67;15.95;;;11.40;99.90;;;;;;5053148;28;20385;-54
2022/05/25 04:43:33;;;;;;;20.83;16.45;;;11.50;99.90;;;;;;5053172;28;20033;-52
2022/05/25 04:46:01;;;;;;;19.60;15.43;;;11.50;99.90;;;;;;5053177;28;20105;-52
2022/05/25 04:48:27;;;;;;;20.30;15.30;;;11.50;99.90;;;;;;5053521;28;20043;-50
2022/05/25 04:50:54;;;;;;;19.10;15.98;;;11.50;99.90;;;;;;5053449;28;20025;-53
2022/05/25 04:53:21;;;;;;;17.58;14.63;;;11.50;99.90;;;;;;5053208;28;20028;-51
2022/05/25 04:58:41;;;;;;;19.73;15.43;;;11.60;99.90;;;;;;5053507;28;20060;-54
2022/05/25 05:01:09;;;;;;;22.90;15.65;;;11.70;99.90;;;;;;5052761;28;20032;-51
2022/05/25 05:03:35;;;;;;;19.33;14.45;;;11.70;99.90;;;;;;5041716;28;20394;-51
2022/05/25 05:06:01;;;;;;;19.45;14.88;;;11.70;99.90;;;;;;5050294;28;20025;-53
2022/05/25 05:08:28;;;;;;;18.67;15.13;;;11.80;99.90;;;;;;5052741;28;20018;-52
2022/05/25 05:10:54;;;;;;;20.95;14.82;;;11.90;99.90;;;;;;5052569;28;20418;-49
2022/05/25 05:13:20;;;;;;;19.98;14.32;;;11.90;99.90;;;;;;5052949;28;20040;-50
2022/05/25 05:15:52;;;;;;;19.13;15.15;;;12.00;99.90;;;;;;5052951;28;20033;-50
2022/05/25 05:18:20;;;;;;;18.50;15.00;;;12.00;99.90;;;;;;5053040;28;20028;-50
2022/05/25 05:20:45;;;;;;;23.52;14.77;;;12.10;99.90;;;;;;5052507;28;20036;-50
2022/05/25 05:23:12;;;;;;;19.20;14.90;;;12.20;99.90;;;;;;5055693;28;20021;-50
2022/05/25 05:25:39;;;;;;;18.48;14.40;;;12.30;99.90;;;;;;5056900;28;20029;-50
2022/05/25 05:28:09;;;;;;;18.38;14.18;;;12.40;99.90;;;;;;5056514;28;20025;-51
2022/05/25 05:30:39;;;;;;;20.10;15.07;;;12.40;99.90;;;;;;5056546;28;20025;-53
2022/05/25 05:33:05;;;;;;;19.65;14.88;;;12.50;99.90;;;;;;5056685;28;20309;-54
2022/05/25 05:35:31;;;;;;;18.45;14.25;;;12.60;99.90;;;;;;5056275;28;20029;-53
2022/05/25 05:37:57;;;;;;;18.48;14.45;;;12.70;99.90;;;;;;5056135;28;20386;-53
2022/05/25 05:40:24;;;;;;;22.38;15.15;;;12.80;99.90;;;;;;5056370;28;20107;-54
2022/05/25 05:42:52;;;;;;;17.60;14.25;;;12.90;99.90;;;;;;5055918;28;20449;-52
2022/05/25 05:45:24;;;;;;;22.05;15.10;;;13.00;99.90;;;;;;5056088;28;20063;-55
2022/05/25 05:47:56;;;;;;;21.67;14.77;;;13.10;99.90;;;;;;5055816;28;20029;-53
2022/05/25 05:50:23;;;;;;;20.50;15.77;;;13.20;99.90;;;;;;5056157;28;20120;-51
2022/05/25 05:52:50;;;;;;;19.50;14.50;;;13.20;99.90;;;;;;5055772;28;20028;-52
2022/05/25 05:55:16;;;;;;;20.20;14.60;;;13.30;99.90;;;;;;5055848;28;20029;-51
2022/05/25 05:57:42;;;;;;;18.58;13.90;;;13.60;99.90;;;;;;5051928;28;20120;-52
2022/05/25 06:00:09;;;;;;;18.73;14.23;;;13.60;99.90;;;;;;5044890;28;20520;-52
2022/05/25 06:02:35;;;;;;;17.92;13.48;;;13.70;99.90;;;;;;5038017;28;20104;-52
2022/05/25 06:05:00;;;;;;;18.92;14.02;;;13.70;99.90;;;;;;5056094;28;20563;-52
2022/05/25 06:07:26;;;;;;;18.67;13.57;;;13.80;99.90;;;;;;5042102;28;20025;-54
2022/05/25 06:09:51;;;;;;;19.30;14.10;;;13.80;99.90;;;;;;5056065;28;20032;-56
2022/05/25 06:12:17;;;;;;;20.30;13.43;;;13.80;99.90;;;;;;5056733;28;20037;-52
2022/05/25 06:14:43;;;;;;;18.92;14.18;;;13.90;99.90;;;;;;5057677;28;20029;-50
2022/05/25 06:20:00;;;;;;;18.35;12.57;;;14.10;99.90;;;;;;5014080;28;20087;-51
2022/05/25 06:22:27;;;;;;;17.20;13.60;;;14.10;99.90;;;;;;5035636;28;20033;-55
2022/05/25 06:24:53;;;;;;;17.50;13.50;;;14.20;99.90;;;;;;5035537;28;20025;-50
2022/05/25 06:27:20;;;;;;;18.23;12.90;;;14.30;99.90;;;;;;5035755;28;20036;-50
2022/05/25 06:29:47;;;;;;;15.88;12.25;;;14.40;99.90;;;;;;5035516;28;20445;-50
2022/05/25 06:32:15;;;;;;;16.83;12.38;;;14.50;99.90;;;;;;5039343;28;20111;-49
2022/05/25 06:34:47;;;;;;;13.30;11.23;;;14.50;99.90;;;;;;5036073;28;20513;-49
2022/05/25 06:37:18;;;;;;;18.58;12.73;;;14.60;99.90;;;;;;5050951;28;20488;-50
2022/05/25 06:39:44;;;;;;;17.05;11.65;;;14.70;99.90;;;;;;5054484;28;20035;-50
2022/05/25 06:42:10;;;;;;;13.27;11.25;;;14.80;99.90;;;;;;5055502;28;20522;-49
2022/05/25 06:44:35;;;;;;;17.10;11.75;;;14.90;99.90;;;;;;5055441;28;20466;-53
2022/05/25 06:47:03;;;;;;;20.50;12.52;;;15.00;99.90;;;;;;5055115;28;20106;-51
2022/05/25 06:49:28;;;;;;;17.27;11.57;;;15.10;99.90;;;;;;5037273;28;20378;-49
2022/05/25 06:51:54;;;;;;;14.20;10.52;;;15.10;99.90;;;;;;5054782;28;20040;-50
2022/05/25 06:54:20;;;;;;;15.68;10.10;;;15.30;99.90;;;;;;5054995;28;20059;-50
2022/05/25 06:56:45;;;;;;;15.82;9.63;;;15.30;99.90;;;;;;5054858;28;20037;-50
2022/05/25 06:59:11;;;;;;;13.23;9.85;;;15.30;99.90;;;;;;5037102;28;20032;-51
2022/05/25 07:01:38;;;;;;;11.10;8.25;;;15.40;99.90;;;;;;5054945;28;20029;-51
2022/05/25 07:04:05;;;;;;;15.55;8.23;;;15.50;99.90;;;;;;5054827;28;20377;-52
2022/05/25 07:06:31;;;;;;;13.52;9.73;;;15.50;99.90;;;;;;5056047;28;20090;-55
2022/05/25 07:08:57;;;;;;;14.52;8.85;;;15.50;99.90;;;;;;5055567;28;20025;-51
2022/05/25 07:11:23;;;;;;;14.57;8.82;;;15.60;99.90;;;;;;5055035;28;20082;-51
2022/05/25 07:13:50;;;;;;;12.95;9.50;;;15.70;99.90;;;;;;5054913;28;20433;-50
2022/05/25 07:16:19;;;;;;;14.15;9.30;;;15.80;99.90;;;;;;5054730;28;20386;-53
2022/05/25 07:18:46;;;;;;;16.50;11.18;;;16.00;99.90;;;;;;5054310;28;20107;-50
2022/05/25 07:21:27;;;;;;;11.63;9.80;;;16.00;99.90;;;;;;5054212;28;20087;-50
2022/05/25 07:23:55;;;;;;;13.98;9.82;;;16.00;99.90;;;;;;5044938;28;20071;-54
2022/05/25 07:26:22;;;;;;;13.00;9.50;;;16.10;99.90;;;;;;5043102;28;20497;-51
2022/05/25 07:28:48;;;;;;;12.43;10.00;;;16.10;99.90;;;;;;5043406;28;20103;-51
2022/05/25 07:31:21;;;;;;;14.77;9.35;;;16.10;99.90;;;;;;5044484;28;20478;-53
2022/05/25 07:33:50;;;;;;;13.30;9.50;;;16.20;99.90;;;;;;5043943;28;20053;-50
2022/05/25 07:36:16;;;;;;;12.48;9.52;;;16.30;99.90;;;;;;5042766;28;20135;-51
2022/05/25 07:38:47;;;;;;;11.75;8.93;;;16.30;99.90;;;;;;5051181;28;20067;-50
2022/05/25 07:41:13;;;;;;;;;;;16.30;99.90;;;;;;5054136;28;20029;-50
2022/05/25 07:43:41;;;;;;;14.20;9.57;;;16.40;99.90;;;;;;5053511;28;20007;-53
2022/05/25 07:46:06;;;;;;;12.25;9.55;;;16.40;99.90;;;;;;5039653;28;20049;-50
2022/05/25 07:48:32;;;;;;;11.48;8.02;;;16.50;99.90;;;;;;5034180;28;20025;-53
2022/05/25 07:50:58;;;;;;;11.05;7.65;;;16.60;99.90;;;;;;5034255;28;20490;-50
2022/05/25 07:56:08;;;;;;;9.50;7.03;;;16.70;99.90;;;;;;5034669;28;20101;-52
2022/05/25 07:58:34;;;;;;;9.73;6.93;;;16.80;99.90;;;;;;5016749;28;20041;-49
2022/05/25 08:01:10;;;;;;;8.15;5.97;;;17.00;99.90;;;;;;5034989;28;20030;-52
2022/05/25 08:06:20;;;;;;;12.13;7.75;;;17.30;99.90;;;;;;5033821;28;20410;-51
2022/05/25 08:08:46;;;;;;;9.23;7.28;;;17.40;99.90;;;;;;5033705;28;20026;-50
2022/05/25 08:11:15;;;;;;;7.57;5.55;;;17.40;99.90;;;;;;5033537;28;20029;-50
2022/05/25 08:13:45;;;;;;;6.25;4.43;;;17.40;99.90;;;;;;5033640;28;20025;-51
2022/05/25 08:16:11;;;;;;;7.20;4.60;;;17.30;99.90;;;;;;5033688;28;20022;-51
2022/05/25 08:18:37;;;;;;;6.60;4.35;;;17.30;99.90;;;;;;5033531;28;20052;-52
2022/05/25 08:21:04;;;;;;;5.07;3.85;;;17.30;99.90;;;;;;5033179;28;20029;-51
2022/05/25 08:23:30;;;;;;;4.28;3.88;;;17.30;99.90;;;;;;5033914;28;20498;-50
2022/05/25 08:25:55;;;;;;;7.72;4.95;;;17.30;99.90;;;;;;5038105;28;20037;-50
2022/05/25 08:28:21;;;;;;;5.22;4.40;;;17.30;99.90;;;;;;5043156;28;20371;-51
2022/05/25 08:30:47;;;;;;;5.57;4.03;;;17.20;99.90;;;;;;5032720;28;20061;-51
2022/05/25 08:33:17;;;;;;;10.93;4.55;;;17.20;99.90;;;;;;5016724;28;20029;-50
2022/05/25 08:35:44;;;;;;;5.93;3.85;;;17.40;99.90;;;;;;5033693;28;20031;-50
2022/05/25 08:38:10;;;;;;;5.50;4.13;;;17.50;99.90;;;;;;5033698;28;20072;-52
2022/05/25 08:40:35;;;;;;;5.97;3.70;;;17.60;99.90;;;;;;5035244;28;20026;-50
2022/05/25 08:43:27;;;;;;;5.18;4.32;;;17.60;99.90;;;;;;5036547;28;20475;-52
2022/05/25 08:45:57;;;;;;;5.05;4.20;;;17.70;99.90;;;;;;5033385;28;20398;-50
2022/05/25 08:48:24;;;;;;;6.47;4.15;;;17.90;99.90;;;;;;5035980;28;20116;-53
2022/05/25 08:50:53;;;;;;;7.90;4.35;;;18.00;99.90;;;;;;5041687;28;20072;-50
2022/05/25 08:53:22;;;;;;;6.25;4.45;;;18.20;99.90;;;;;;5042086;28;20061;-50
2022/05/25 08:56:06;;;;;;;8.77;4.72;;;18.40;99.90;;;;;;5044074;28;20025;-51
2022/05/25 08:58:48;;;;;;;7.57;5.18;;;18.30;99.90;;;;;;5045646;28;20033;-51
2022/05/25 09:01:47;;;;;;;9.60;4.60;;;18.30;99.90;;;;;;5047796;28;20068;-50
2022/05/25 09:04:20;;;;;;;4.63;3.60;;;18.30;99.90;;;;;;5028750;28;20052;-50
2022/05/25 09:06:55;;;;;;;4.72;3.20;;;18.30;99.90;;;;;;5056955;28;20128;-51
2022/05/25 09:09:39;;;;;;;3.38;2.80;;;18.30;99.90;;;;;;5039015;28;20090;-55
2022/05/25 09:12:14;;;;;;;5.03;3.00;;;18.40;99.90;;;;;;5061711;22;20029;-72
2022/05/25 09:14:49;;;;;;;8.18;3.63;;;18.40;99.90;;;;;;5052956;28;20033;-71
2022/05/25 09:17:28;;;;;;;5.07;2.97;;;18.40;99.90;;;;;;5050586;28;20079;-71
2022/05/25 09:19:54;;;;;;;4.63;2.95;;;18.50;99.90;;;;;;5061112;28;20029;-71
2022/05/25 09:22:24;;;;;;;2.33;2.13;;;18.70;99.90;;;;;;5054446;28;20033;-71
2022/05/25 09:24:54;;;;;;;2.80;2.22;;;18.80;99.90;;;;;;5037565;28;20027;-72
2022/05/25 09:27:52;;;;;;;8.02;3.33;;;18.80;99.90;;;;;;5036807;28;20022;-71
2022/05/25 09:30:18;;;;;;;5.43;3.15;;;19.00;99.90;;;;;;5004115;28;20044;-71
2022/05/25 09:33:01;;;;;;;6.15;2.00;;;19.10;99.90;;;;;;5017186;28;20025;-72
2022/05/25 09:35:38;;;;;;;3.63;2.25;;;19.00;99.90;;;;;;5017421;28;20076;-72
2022/05/25 09:38:14;;;;;;;2.70;2.03;;;18.90;99.90;;;;;;5023861;28;20022;-71
2022/05/25 09:40:43;;;;;;;2.38;2.10;;;18.90;99.90;;;;;;5034656;28;20136;-71
2022/05/25 09:43:14;;;;;;;5.68;2.65;;;19.10;99.90;;;;;;5034417;28;20390;-71
2022/05/25 09:45:44;;;;;;;2.95;2.30;;;19.20;99.90;;;;;;5036167;28;20024;-72
2022/05/25 09:48:18;;;;;;;3.88;2.10;;;19.30;99.90;;;;;;5036498;28;20052;-72
2022/05/25 09:50:52;;;;;;;3.53;2.42;;;19.60;99.90;;;;;;5036259;28;20467;-71
2022/05/25 09:53:20;;;;;;;3.75;1.50;;;19.60;99.90;;;;;;5036255;28;20390;-73
2022/05/25 09:56:04;;;;;;;2.50;1.50;;;19.70;99.90;;;;;;5036337;28;20025;-72
2022/05/25 09:58:37;;;;;;;3.42;1.45;;;19.80;99.90;;;;;;5036260;28;20109;-71
2022/05/25 10:01:22;;;;;;;1.73;1.30;;;19.80;99.90;;;;;;5037206;28;20032;-71
2022/05/25 10:03:48;;;;;;;2.15;1.45;;;19.90;99.90;;;;;;5039488;28;20095;-71
2022/05/25 10:06:24;;;;;;;2.88;1.30;;;20.10;99.90;;;;;;5037048;28;20018;-72
2022/05/25 10:09:11;;;;;;;1.45;1.35;;;20.20;99.90;;;;;;5035580;28;20108;-72
2022/05/25 10:11:49;;;;;;;1.58;1.48;;;20.10;99.90;;;;;;5036586;28;20494;-71
2022/05/25 10:14:38;;;;;;;1.63;1.38;;;20.10;99.90;;;;;;5037614;28;20084;-71
2022/05/25 10:17:06;;;;;;;3.90;1.60;;;20.00;99.90;;;;;;5037695;28;20021;-71
2022/05/25 10:19:36;;;;;;;2.72;1.80;;;19.90;99.90;;;;;;5037349;28;20048;-71
2022/05/25 10:22:02;;;;;;;1.58;1.17;;;19.80;99.90;;;;;;5036869;28;20053;-71
2022/05/25 10:24:43;;;;;;;3.50;2.00;;;19.80;99.90;;;;;;5036115;28;20068;-72
2022/05/25 10:27:26;;;;;;;6.90;1.50;;;19.70;99.90;;;;;;5036560;28;20425;-72
2022/05/25 10:38:26;;;;;;;7.20;2.10;;;20.10;99.90;;;;;;5046207;28;20089;-72
2022/05/25 10:40:52;;;;;;;7.32;2.17;;;20.10;99.90;;;;;;5044975;28;20087;-72
2022/05/25 10:43:25;;;;;;;2.70;2.03;;;20.10;99.90;;;;;;5022316;28;20021;-72
2022/05/25 10:45:53;;;;;;;2.03;1.77;;;20.20;99.90;;;;;;5041736;28;20026;-72
2022/05/25 10:48:25;;;;;;;4.47;1.65;;;20.30;99.90;;;;;;5046614;28;20025;-72
2022/05/25 10:50:58;;;;;;;2.40;1.88;;;20.40;99.90;;;;;;5042789;28;20025;-72
2022/05/25 10:53:43;;;;;;;2.00;1.50;;;20.50;99.90;;;;;;5035883;28;20029;-73
2022/05/25 10:56:40;;;;;;;1.85;1.70;;;20.60;99.90;;;;;;5017114;28;20025;-72
2022/05/25 10:59:32;;;;;;;2.85;1.90;;;20.60;99.90;;;;;;5036055;28;20099;-72
2022/05/25 11:02:21;;;;;;;4.88;2.22;;;20.60;99.90;;;;;;5035134;28;20032;-72
2022/05/25 11:05:16;;;;;;;3.20;1.55;;;20.50;99.90;;;;;;5035323;28;20485;-73
2022/05/25 11:07:43;;;;;;;4.72;1.98;;;20.50;99.90;;;;;;5037926;28;20097;-72
2022/05/25 11:10:42;;;;;;;2.75;1.67;;;20.40;99.90;;;;;;5038029;28;20026;-72
2022/05/25 11:13:55;;;;;;;5.82;3.42;;;20.40;99.90;;;;;;5016495;28;20033;-72
2022/05/25 11:16:38;;;;;;;4.28;2.30;;;20.50;99.90;;;;;;5016835;28;20036;-72
2022/05/25 11:19:20;;;;;;;2.30;1.90;;;20.60;99.90;;;;;;5034505;28;20036;-72
2022/05/25 11:21:58;;;;;;;2.13;1.60;;;20.40;99.90;;;;;;5017101;28;20025;-72
2022/05/25 11:24:32;;;;;;;2.13;1.90;;;20.20;99.90;;;;;;5034482;28;20022;-73
2022/05/25 11:27:17;;;;;;;2.05;1.85;;;20.20;99.90;;;;;;5034767;28;20091;-72
2022/05/25 11:29:58;;;;;;;4.70;2.78;;;20.00;99.90;;;;;;5031371;28;20031;-71
2022/05/25 11:32:34;;;;;;;4.65;2.10;;;19.90;99.90;;;;;;5031300;28;20121;-73
2022/05/25 11:35:11;;;;;;;3.83;2.22;;;19.90;99.90;;;;;;5032516;28;20041;-71
2022/05/25 11:37:55;;;;;;;4.63;2.25;;;20.00;99.90;;;;;;5016109;28;20030;-72
2022/05/25 11:40:47;;;;;;;1.98;1.70;;;19.90;99.90;;;;;;5033509;28;20370;-72
2022/05/25 11:43:50;;;;;;;3.13;1.50;;;19.60;99.90;;;;;;5025468;28;20048;-72
2022/05/25 11:46:19;;;;;;;3.55;1.60;;;19.70;99.90;;;;;;5034150;28;20513;-72
2022/05/25 11:49:03;;;;;;;2.72;1.60;;;19.80;99.90;;;;;;5034464;28;20061;-73
2022/05/25 11:51:40;;;;;;;1.70;1.60;;;20.00;99.90;;;;;;5030534;28;20029;-72
2022/05/25 11:54:42;;;;;;;2.38;1.40;;;20.10;99.90;;;;;;5030242;28;20548;-72
2022/05/25 11:57:27;;;;;;;1.58;1.30;;;20.20;99.90;;;;;;5026619;28;20130;-71
2022/05/25 12:00:11;;;;;;;4.30;1.80;;;20.40;99.90;;;;;;5034784;28;20466;-72
2022/05/25 12:02:56;;;;;;;4.00;1.88;;;20.50;99.90;;;;;;5031207;28;20029;-72
2022/05/25 12:05:38;;;;;;;2.22;1.65;;;20.50;99.90;;;;;;5025707;28;20032;-71
2022/05/25 12:08:45;;;;;;;2.10;1.88;;;20.50;99.90;;;;;;5015146;28;20026;-72
2022/05/25 12:11:40;;;;;;;2.80;1.90;;;20.60;99.90;;;;;;4935662;29;20031;-72
2022/05/25 12:14:28;;;;;;;2.25;1.70;;;20.60;99.90;;;;;;4949102;28;20039;-71
2022/05/25 12:17:02;;;;;;;1.67;1.33;;;20.80;99.90;;;;;;4988266;28;20041;-72
2022/05/25 12:19:30;;;;;;;1.55;1.40;;;21.00;99.90;;;;;;5014733;28;20100;-73
2022/05/25 12:22:01;;;;;;;3.30;1.50;;;21.10;99.90;;;;;;5017322;28;20025;-71
2022/05/25 12:24:35;;;;;;;1.75;1.25;;;21.10;99.90;;;;;;5022734;28;20018;-73
2022/05/25 12:27:04;;;;;;;4.00;1.45;;;21.20;99.90;;;;;;5015046;28;20148;-73
2022/05/25 12:30:05;;;;;;;1.60;1.50;;;21.20;99.90;;;;;;5019930;28;20475;-73
2022/05/25 12:32:31;;;;;;;3.92;1.40;;;21.20;99.90;;;;;;5001022;28;20048;-72
2022/05/25 12:34:57;;;;;;;1.52;0.95;;;21.10;99.90;;;;;;5026898;28;20489;-72
2022/05/25 12:37:28;;;;;;;1.15;1.05;;;20.90;99.90;;;;;;5013738;28;20483;-72
2022/05/25 12:39:57;;;;;;;2.45;1.00;;;20.70;99.40;;;;;;5024461;28;20025;-71
2022/05/25 12:42:22;;;;;;;1.23;0.90;;;20.60;99.20;;;;;;5013274;28;20072;-71
2022/05/25 12:50:39;;;;;;;2.67;1.17;;;20.60;99.90;;;;;;5013270;28;20077;-72
2022/05/25 12:53:32;;;;;;;1.58;1.08;;;20.40;99.90;;;;;;5013383;28;20025;-72
2022/05/25 12:56:01;;;;;;;2.58;1.23;;;20.30;99.90;;;;;;5015333;28;20026;-71
2022/05/25 12:58:40;;;;;;;4.75;1.17;;;20.30;99.90;;;;;;5024612;28;20061;-71
2022/05/25 13:01:08;;;;;;;1.15;1.00;;;20.30;99.90;;;;;;5018058;28;20033;-71
2022/05/25 13:03:45;;;;;;;2.03;0.90;;;20.40;99.90;;;;;;5032806;28;20030;-73
2022/05/25 13:06:12;;;;;;;1.45;0.90;;;20.50;99.90;;;;;;5032708;28;20029;-72
2022/05/25 13:08:59;;;;;;;0.90;0.90;;;20.60;99.90;;;;;;5032875;28;20033;-72
2022/05/25 13:11:39;;;;;;;1.50;1.17;;;20.50;99.90;;;;;;5033507;28;20022;-72
2022/05/25 13:14:16;;;;;;;1.27;0.90;;;20.50;99.90;;;;;;5032747;28;20536;-72
2022/05/25 13:16:48;;;;;;;1.98;1.05;;;20.60;99.90;;;;;;5014760;28;20029;-74
2022/05/25 13:19:32;;;;;;;4.55;1.40;;;20.50;99.90;;;;;;5032932;28;20378;-72
2022/05/25 13:22:04;;;;;;;1.20;1.10;;;20.70;99.90;;;;;;5032777;28;20053;-71
2022/05/25 13:25:05;;;;;;;1.90;0.95;;;20.80;99.90;;;;;;5033191;28;20018;-72
2022/05/25 13:28:09;;;;;;;3.35;1.67;;;20.80;99.90;;;;;;5032854;28;20049;-71
2022/05/25 13:31:03;;;;;;;4.35;1.60;;;20.90;99.90;;;;;;5026136;28;20087;-72
2022/05/25 13:33:41;;;;;;;2.65;1.52;;;20.90;99.90;;;;;;5032609;28;20030;-71
2022/05/25 13:36:13;;;;;;;1.08;1.00;;;20.80;99.50;;;;;;5033915;28;20360;-71